sensor_id;sensor_type;location;lat;lon;timestamp;temperature;humidity
33863;DHT22;20158;51.436;-2.742;2023-02-14T00:01:47;7.00;62.40
33863;DHT22;20158;51.436;-2.742;2023-02-14T00:04:14;7.10;62.60
33863;DHT22;20158;51.436;-2.742;2023-02-14T00:06:40;7.00;62.50
33863;DHT22;20158;51.436;-2.742;2023-02-14T00:09:10;7.00;62.50
33863;DHT22;20158;51.436;-2.742;2023-02-14T00:11:37;7.00;62.50
33863;DHT22;20158;51.436;-2.742;2023-02-14T00:14:03;7.00;62.50
33863;DHT22;20158;51.436;-2.742;2023-02-14T00:16:47;7.00;62.60
33863;DHT22;20158;51.436;-2.742;2023-02-14T00:19:15;7.00;62.60
33863;DHT22;20158;51.436;-2.742;2023-02-14T00:21:42;6.90;62.50
33863;DHT22;20158;51.436;-2.742;2023-02-14T00:24:16;6.90;62.50
33863;DHT22;20158;51.436;-2.742;2023-02-14T00:26:43;6.90;62.60
33863;DHT22;20158;51.436;-2.742;2023-02-14T00:29:11;6.80;62.40
33863;DHT22;20158;51.436;-2.742;2023-02-14T00:31:37;6.80;62.50
33863;DHT22;20158;51.436;-2.742;2023-02-14T00:34:05;6.80;62.50
33863;DHT22;20158;51.436;-2.742;2023-02-14T00:36:31;6.80;62.50
33863;DHT22;20158;51.436;-2.742;2023-02-14T00:38:57;6.80;62.60
33863;DHT22;20158;51.436;-2.742;2023-02-14T00:41:23;6.80;62.60
33863;DHT22;20158;51.436;-2.742;2023-02-14T00:43:51;6.70;62.50
33863;DHT22;20158;51.436;-2.742;2023-02-14T00:46:19;6.70;62.50
33863;DHT22;20158;51.436;-2.742;2023-02-14T00:48:45;6.70;62.50
33863;DHT22;20158;51.436;-2.742;2023-02-14T00:51:12;6.70;62.60
33863;DHT22;20158;51.436;-2.742;2023-02-14T00:53:39;6.60;62.50
33863;DHT22;20158;51.436;-2.742;2023-02-14T00:56:05;6.70;62.70
33863;DHT22;20158;51.436;-2.742;2023-02-14T00:58:32;6.60;62.60
33863;DHT22;20158;51.436;-2.742;2023-02-14T01:00:58;6.60;62.60
33863;DHT22;20158;51.436;-2.742;2023-02-14T01:03:25;6.60;62.60
33863;DHT22;20158;51.436;-2.742;2023-02-14T01:05:51;6.60;62.60
33863;DHT22;20158;51.436;-2.742;2023-02-14T01:08:18;6.60;62.70
33863;DHT22;20158;51.436;-2.742;2023-02-14T01:10:45;6.50;62.50
33863;DHT22;20158;51.436;-2.742;2023-02-14T01:13:11;6.50;62.50
33863;DHT22;20158;51.436;-2.742;2023-02-14T01:15:39;6.50;62.50
33863;DHT22;20158;51.436;-2.742;2023-02-14T01:18:06;6.50;62.50
33863;DHT22;20158;51.436;-2.742;2023-02-14T01:20:32;6.50;62.60
33863;DHT22;20158;51.436;-2.742;2023-02-14T01:22:59;6.50;62.60
33863;DHT22;20158;51.436;-2.742;2023-02-14T01:25:25;6.40;62.40
33863;DHT22;20158;51.436;-2.742;2023-02-14T01:27:51;6.40;62.50
33863;DHT22;20158;51.436;-2.742;2023-02-14T01:30:17;6.40;62.60
33863;DHT22;20158;51.436;-2.742;2023-02-14T01:32:43;6.40;62.60
33863;DHT22;20158;51.436;-2.742;2023-02-14T01:35:10;6.30;62.50
33863;DHT22;20158;51.436;-2.742;2023-02-14T01:37:36;6.30;62.50
33863;DHT22;20158;51.436;-2.742;2023-02-14T01:40:04;6.30;62.50
33863;DHT22;20158;51.436;-2.742;2023-02-14T01:42:32;6.30;62.50
33863;DHT22;20158;51.436;-2.742;2023-02-14T01:45:20;6.20;62.40
33863;DHT22;20158;51.436;-2.742;2023-02-14T01:47:49;6.20;62.40
33863;DHT22;20158;51.436;-2.742;2023-02-14T01:50:22;6.10;62.20
33863;DHT22;20158;51.436;-2.742;2023-02-14T01:52:54;6.10;62.20
33863;DHT22;20158;51.436;-2.742;2023-02-14T01:55:24;6.10;62.30
33863;DHT22;20158;51.436;-2.742;2023-02-14T01:57:58;6.00;62.20
33863;DHT22;20158;51.436;-2.742;2023-02-14T02:00:26;6.00;62.30
33863;DHT22;20158;51.436;-2.742;2023-02-14T02:03:12;6.00;62.20
33863;DHT22;20158;51.436;-2.742;2023-02-14T02:05:43;6.00;62.30
33863;DHT22;20158;51.436;-2.742;2023-02-14T02:08:10;5.90;62.10
33863;DHT22;20158;51.436;-2.742;2023-02-14T02:10:36;5.90;62.10
33863;DHT22;20158;51.436;-2.742;2023-02-14T02:13:05;5.90;62.20
33863;DHT22;20158;51.436;-2.742;2023-02-14T02:15:41;5.90;62.20
33863;DHT22;20158;51.436;-2.742;2023-02-14T02:18:33;5.90;62.20
33863;DHT22;20158;51.436;-2.742;2023-02-14T02:27:33;5.90;62.20
33863;DHT22;20158;51.436;-2.742;2023-02-14T02:29:44;5.80;62.00
33863;DHT22;20158;51.436;-2.742;2023-02-14T02:32:42;5.80;62.00
33863;DHT22;20158;51.436;-2.742;2023-02-14T02:43:54;5.90;62.20
33863;DHT22;20158;51.436;-2.742;2023-02-14T02:49:23;5.90;62.10
33863;DHT22;20158;51.436;-2.742;2023-02-14T02:55:12;5.90;61.90
33863;DHT22;20158;51.436;-2.742;2023-02-14T02:57:41;5.90;61.90
33863;DHT22;20158;51.436;-2.742;2023-02-14T03:00:08;5.90;61.80
33863;DHT22;20158;51.436;-2.742;2023-02-14T03:02:48;5.90;61.90
33863;DHT22;20158;51.436;-2.742;2023-02-14T03:05:34;5.90;61.90
33863;DHT22;20158;51.436;-2.742;2023-02-14T03:08:02;5.90;62.00
33863;DHT22;20158;51.436;-2.742;2023-02-14T03:10:32;5.90;62.00
33863;DHT22;20158;51.436;-2.742;2023-02-14T03:15:40;5.80;62.00
33863;DHT22;20158;51.436;-2.742;2023-02-14T03:18:32;5.80;62.00
33863;DHT22;20158;51.436;-2.742;2023-02-14T03:24:27;5.80;62.00
33863;DHT22;20158;51.436;-2.742;2023-02-14T03:26:53;5.80;62.10
33863;DHT22;20158;51.436;-2.742;2023-02-14T03:34:42;5.80;62.20
33863;DHT22;20158;51.436;-2.742;2023-02-14T03:37:14;5.70;62.00
33863;DHT22;20158;51.436;-2.742;2023-02-14T03:40:10;5.70;62.00
33863;DHT22;20158;51.436;-2.742;2023-02-14T03:43:16;5.70;62.10
33863;DHT22;20158;51.436;-2.742;2023-02-14T03:46:15;5.70;62.10
33863;DHT22;20158;51.436;-2.742;2023-02-14T03:48:43;5.60;61.90
33863;DHT22;20158;51.436;-2.742;2023-02-14T03:51:12;5.60;61.90
33863;DHT22;20158;51.436;-2.742;2023-02-14T03:53:43;5.60;62.00
33863;DHT22;20158;51.436;-2.742;2023-02-14T03:58:42;5.60;62.00
33863;DHT22;20158;51.436;-2.742;2023-02-14T04:01:20;5.50;61.90
33863;DHT22;20158;51.436;-2.742;2023-02-14T04:03:48;5.50;62.00
33863;DHT22;20158;51.436;-2.742;2023-02-14T04:06:18;5.50;62.00
33863;DHT22;20158;51.436;-2.742;2023-02-14T04:08:44;5.40;61.90
33863;DHT22;20158;51.436;-2.742;2023-02-14T04:11:10;5.40;61.90
33863;DHT22;20158;51.436;-2.742;2023-02-14T04:13:37;5.40;61.90
33863;DHT22;20158;51.436;-2.742;2023-02-14T04:16:03;5.40;62.00
33863;DHT22;20158;51.436;-2.742;2023-02-14T04:18:29;5.30;61.80
33863;DHT22;20158;51.436;-2.742;2023-02-14T04:21:15;5.30;61.90
33863;DHT22;20158;51.436;-2.742;2023-02-14T04:23:41;5.30;61.90
33863;DHT22;20158;51.436;-2.742;2023-02-14T04:26:07;5.30;61.90
33863;DHT22;20158;51.436;-2.742;2023-02-14T04:28:33;5.30;61.90
33863;DHT22;20158;51.436;-2.742;2023-02-14T04:31:00;5.30;61.90
33863;DHT22;20158;51.436;-2.742;2023-02-14T04:33:28;5.30;61.90
33863;DHT22;20158;51.436;-2.742;2023-02-14T04:35:54;5.30;61.90
33863;DHT22;20158;51.436;-2.742;2023-02-14T04:38:19;5.30;61.90
33863;DHT22;20158;51.436;-2.742;2023-02-14T04:40:50;5.30;61.90
33863;DHT22;20158;51.436;-2.742;2023-02-14T04:43:17;5.30;62.00
33863;DHT22;20158;51.436;-2.742;2023-02-14T04:45:43;5.20;61.80
33863;DHT22;20158;51.436;-2.742;2023-02-14T04:48:09;5.20;61.80
33863;DHT22;20158;51.436;-2.742;2023-02-14T04:50:35;5.20;61.80
33863;DHT22;20158;51.436;-2.742;2023-02-14T04:53:01;5.20;61.90
33863;DHT22;20158;51.436;-2.742;2023-02-14T04:55:27;5.20;61.90
33863;DHT22;20158;51.436;-2.742;2023-02-14T04:57:53;5.20;61.90
33863;DHT22;20158;51.436;-2.742;2023-02-14T05:00:19;5.20;61.90
33863;DHT22;20158;51.436;-2.742;2023-02-14T05:02:45;5.10;61.70
33863;DHT22;20158;51.436;-2.742;2023-02-14T05:05:11;5.10;61.70
33863;DHT22;20158;51.436;-2.742;2023-02-14T05:07:37;5.10;61.80
33863;DHT22;20158;51.436;-2.742;2023-02-14T05:10:04;5.00;61.60
33863;DHT22;20158;51.436;-2.742;2023-02-14T05:12:30;5.00;61.70
33863;DHT22;20158;51.436;-2.742;2023-02-14T05:14:56;5.00;61.70
33863;DHT22;20158;51.436;-2.742;2023-02-14T05:17:22;5.00;61.70
33863;DHT22;20158;51.436;-2.742;2023-02-14T05:19:48;5.00;61.70
33863;DHT22;20158;51.436;-2.742;2023-02-14T05:22:14;5.00;61.70
33863;DHT22;20158;51.436;-2.742;2023-02-14T05:24:40;5.00;61.70
33863;DHT22;20158;51.436;-2.742;2023-02-14T05:27:06;5.00;61.70
33863;DHT22;20158;51.436;-2.742;2023-02-14T05:29:32;5.00;61.70
33863;DHT22;20158;51.436;-2.742;2023-02-14T05:31:58;4.90;61.60
33863;DHT22;20158;51.436;-2.742;2023-02-14T05:34:24;4.90;61.60
33863;DHT22;20158;51.436;-2.742;2023-02-14T05:36:50;4.90;61.60
33863;DHT22;20158;51.436;-2.742;2023-02-14T05:39:15;4.90;61.60
33863;DHT22;20158;51.436;-2.742;2023-02-14T05:41:41;4.90;61.60
33863;DHT22;20158;51.436;-2.742;2023-02-14T05:44:07;4.90;61.60
33863;DHT22;20158;51.436;-2.742;2023-02-14T05:46:33;4.90;61.60
33863;DHT22;20158;51.436;-2.742;2023-02-14T05:48:59;4.90;61.70
33863;DHT22;20158;51.436;-2.742;2023-02-14T05:51:25;4.80;61.50
33863;DHT22;20158;51.436;-2.742;2023-02-14T05:53:51;4.80;61.50
33863;DHT22;20158;51.436;-2.742;2023-02-14T05:56:17;4.80;61.50
33863;DHT22;20158;51.436;-2.742;2023-02-14T05:58:43;4.80;61.50
33863;DHT22;20158;51.436;-2.742;2023-02-14T06:01:08;4.80;61.60
33863;DHT22;20158;51.436;-2.742;2023-02-14T06:03:34;4.70;61.40
33863;DHT22;20158;51.436;-2.742;2023-02-14T06:06:00;4.70;61.40
33863;DHT22;20158;51.436;-2.742;2023-02-14T06:08:26;4.70;61.50
33863;DHT22;20158;51.436;-2.742;2023-02-14T06:10:52;4.70;61.50
33863;DHT22;20158;51.436;-2.742;2023-02-14T06:13:18;4.70;61.50
33863;DHT22;20158;51.436;-2.742;2023-02-14T06:15:44;4.70;61.50
33863;DHT22;20158;51.436;-2.742;2023-02-14T06:18:10;4.80;61.60
33863;DHT22;20158;51.436;-2.742;2023-02-14T06:20:36;4.80;61.60
33863;DHT22;20158;51.436;-2.742;2023-02-14T06:23:02;4.80;61.60
33863;DHT22;20158;51.436;-2.742;2023-02-14T06:25:28;4.80;61.50
33863;DHT22;20158;51.436;-2.742;2023-02-14T06:27:58;4.80;61.50
33863;DHT22;20158;51.436;-2.742;2023-02-14T06:30:24;4.80;61.60
33863;DHT22;20158;51.436;-2.742;2023-02-14T06:32:51;4.80;61.50
33863;DHT22;20158;51.436;-2.742;2023-02-14T06:35:17;4.80;61.50
33863;DHT22;20158;51.436;-2.742;2023-02-14T06:37:43;4.80;61.50
33863;DHT22;20158;51.436;-2.742;2023-02-14T06:40:11;4.80;61.50
33863;DHT22;20158;51.436;-2.742;2023-02-14T06:42:37;4.80;61.50
33863;DHT22;20158;51.436;-2.742;2023-02-14T06:45:04;4.80;61.50
33863;DHT22;20158;51.436;-2.742;2023-02-14T06:47:30;4.90;61.70
33863;DHT22;20158;51.436;-2.742;2023-02-14T06:49:56;4.90;61.70
33863;DHT22;20158;51.436;-2.742;2023-02-14T06:52:25;4.90;61.70
33863;DHT22;20158;51.436;-2.742;2023-02-14T06:54:51;4.90;61.70
33863;DHT22;20158;51.436;-2.742;2023-02-14T06:57:16;4.90;61.70
33863;DHT22;20158;51.436;-2.742;2023-02-14T06:59:42;4.90;61.70
33863;DHT22;20158;51.436;-2.742;2023-02-14T07:02:11;4.90;61.70
33863;DHT22;20158;51.436;-2.742;2023-02-14T07:04:37;4.90;62.00
33863;DHT22;20158;51.436;-2.742;2023-02-14T07:07:04;5.10;62.80
33863;DHT22;20158;51.436;-2.742;2023-02-14T07:09:30;5.20;63.00
33863;DHT22;20158;51.436;-2.742;2023-02-14T07:11:56;5.40;63.30
33863;DHT22;20158;51.436;-2.742;2023-02-14T07:14:22;5.40;63.10
33863;DHT22;20158;51.436;-2.742;2023-02-14T07:16:48;5.40;63.10
33863;DHT22;20158;51.436;-2.742;2023-02-14T07:19:14;5.50;63.30
33863;DHT22;20158;51.436;-2.742;2023-02-14T07:21:40;5.50;63.30
33863;DHT22;20158;51.436;-2.742;2023-02-14T07:24:06;5.50;63.40
33863;DHT22;20158;51.436;-2.742;2023-02-14T07:26:32;5.40;63.30
33863;DHT22;20158;51.436;-2.742;2023-02-14T07:28:57;5.50;63.60
33863;DHT22;20158;51.436;-2.742;2023-02-14T07:31:23;5.50;63.90
33863;DHT22;20158;51.436;-2.742;2023-02-14T07:33:50;5.60;64.30
33863;DHT22;20158;51.436;-2.742;2023-02-14T07:36:17;5.70;64.50
33863;DHT22;20158;51.436;-2.742;2023-02-14T07:38:43;5.90;64.90
33863;DHT22;20158;51.436;-2.742;2023-02-14T07:41:09;6.00;65.00
33863;DHT22;20158;51.436;-2.742;2023-02-14T07:43:35;6.10;65.20
33863;DHT22;20158;51.436;-2.742;2023-02-14T07:46:01;6.20;65.30
33863;DHT22;20158;51.436;-2.742;2023-02-14T07:48:28;6.30;65.50
33863;DHT22;20158;51.436;-2.742;2023-02-14T07:50:54;6.40;65.80
33863;DHT22;20158;51.436;-2.742;2023-02-14T07:53:22;6.60;66.10
33863;DHT22;20158;51.436;-2.742;2023-02-14T07:55:49;6.70;66.10
33863;DHT22;20158;51.436;-2.742;2023-02-14T07:58:15;6.80;66.10
33863;DHT22;20158;51.436;-2.742;2023-02-14T08:00:41;6.80;66.00
33863;DHT22;20158;51.436;-2.742;2023-02-14T08:03:07;6.80;66.10
33863;DHT22;20158;51.436;-2.742;2023-02-14T08:05:34;6.80;66.30
33863;DHT22;20158;51.436;-2.742;2023-02-14T08:08:00;6.90;67.00
33863;DHT22;20158;51.436;-2.742;2023-02-14T08:10:26;7.10;67.60
33863;DHT22;20158;51.436;-2.742;2023-02-14T08:12:52;7.40;68.10
33863;DHT22;20158;51.436;-2.742;2023-02-14T08:18:13;7.90;68.60
33863;DHT22;20158;51.436;-2.742;2023-02-14T08:20:39;8.20;68.50
33863;DHT22;20158;51.436;-2.742;2023-02-14T08:23:06;8.40;68.50
33863;DHT22;20158;51.436;-2.742;2023-02-14T08:25:32;8.40;68.20
33863;DHT22;20158;51.436;-2.742;2023-02-14T08:28:00;8.50;68.20
33863;DHT22;20158;51.436;-2.742;2023-02-14T08:30:26;8.50;68.20
33863;DHT22;20158;51.436;-2.742;2023-02-14T08:32:52;8.50;68.20
33863;DHT22;20158;51.436;-2.742;2023-02-14T08:35:18;8.40;68.00
33863;DHT22;20158;51.436;-2.742;2023-02-14T08:37:44;8.30;67.90
33863;DHT22;20158;51.436;-2.742;2023-02-14T08:40:10;8.30;68.10
33863;DHT22;20158;51.436;-2.742;2023-02-14T08:42:36;8.20;67.90
33863;DHT22;20158;51.436;-2.742;2023-02-14T08:45:03;8.20;68.00
33863;DHT22;20158;51.436;-2.742;2023-02-14T08:47:30;8.10;67.90
33863;DHT22;20158;51.436;-2.742;2023-02-14T08:50:01;8.10;68.50
33863;DHT22;20158;51.436;-2.742;2023-02-14T08:52:27;8.00;67.90
33863;DHT22;20158;51.436;-2.742;2023-02-14T08:54:53;8.00;67.90
33863;DHT22;20158;51.436;-2.742;2023-02-14T08:57:19;8.00;67.90
33863;DHT22;20158;51.436;-2.742;2023-02-14T08:59:45;7.90;67.70
33863;DHT22;20158;51.436;-2.742;2023-02-14T09:02:12;7.90;67.70
33863;DHT22;20158;51.436;-2.742;2023-02-14T09:04:38;7.90;67.60
33863;DHT22;20158;51.436;-2.742;2023-02-14T09:07:04;7.90;67.60
33863;DHT22;20158;51.436;-2.742;2023-02-14T09:09:30;7.90;67.50
33863;DHT22;20158;51.436;-2.742;2023-02-14T09:11:57;7.90;67.50
33863;DHT22;20158;51.436;-2.742;2023-02-14T09:14:23;7.90;67.50
33863;DHT22;20158;51.436;-2.742;2023-02-14T09:16:49;7.80;67.30
33863;DHT22;20158;51.436;-2.742;2023-02-14T09:19:15;7.90;67.40
33863;DHT22;20158;51.436;-2.742;2023-02-14T09:21:41;7.90;67.30
33863;DHT22;20158;51.436;-2.742;2023-02-14T09:24:07;7.90;67.30
33863;DHT22;20158;51.436;-2.742;2023-02-14T09:26:33;7.90;67.30
33863;DHT22;20158;51.436;-2.742;2023-02-14T09:29:01;7.80;67.10
33863;DHT22;20158;51.436;-2.742;2023-02-14T09:31:27;7.90;67.20
33863;DHT22;20158;51.436;-2.742;2023-02-14T09:33:53;7.90;67.20
33863;DHT22;20158;51.436;-2.742;2023-02-14T09:36:19;7.80;67.00
33863;DHT22;20158;51.436;-2.742;2023-02-14T09:39:04;7.90;67.10
33863;DHT22;20158;51.436;-2.742;2023-02-14T09:46:25;7.90;67.10
33863;DHT22;20158;51.436;-2.742;2023-02-14T09:48:54;8.00;67.20
33863;DHT22;20158;51.436;-2.742;2023-02-14T09:51:23;8.00;67.20
33863;DHT22;20158;51.436;-2.742;2023-02-14T09:53:53;8.00;67.20
33863;DHT22;20158;51.436;-2.742;2023-02-14T09:56:53;8.10;67.30
33863;DHT22;20158;51.436;-2.742;2023-02-14T09:59:52;8.10;67.30
33863;DHT22;20158;51.436;-2.742;2023-02-14T10:05:27;8.30;67.40
33863;DHT22;20158;51.436;-2.742;2023-02-14T10:10:37;8.50;67.40
33863;DHT22;20158;51.436;-2.742;2023-02-14T10:15:58;8.90;67.70
33863;DHT22;20158;51.436;-2.742;2023-02-14T10:19:17;9.00;67.60
33863;DHT22;20158;51.436;-2.742;2023-02-14T10:21:32;9.20;67.70
33863;DHT22;20158;51.436;-2.742;2023-02-14T10:24:08;9.40;67.70
33863;DHT22;20158;51.436;-2.742;2023-02-14T10:26:38;9.60;67.70
33863;DHT22;20158;51.436;-2.742;2023-02-14T10:29:12;9.80;67.60
33863;DHT22;20158;51.436;-2.742;2023-02-14T10:31:44;10.00;67.70
33863;DHT22;20158;51.436;-2.742;2023-02-14T10:34:38;10.00;67.60
33863;DHT22;20158;51.436;-2.742;2023-02-14T10:45:29;10.20;68.20
33863;DHT22;20158;51.436;-2.742;2023-02-14T10:48:31;10.20;68.20
33863;DHT22;20158;51.436;-2.742;2023-02-14T10:56:31;10.20;68.50
33863;DHT22;20158;51.436;-2.742;2023-02-14T10:59:06;10.20;68.50
33863;DHT22;20158;51.436;-2.742;2023-02-14T11:01:33;10.30;68.70
33863;DHT22;20158;51.436;-2.742;2023-02-14T11:04:01;10.30;68.70
33863;DHT22;20158;51.436;-2.742;2023-02-14T11:06:33;10.30;68.70
33863;DHT22;20158;51.436;-2.742;2023-02-14T11:08:59;10.40;68.90
33863;DHT22;20158;51.436;-2.742;2023-02-14T11:13:51;10.40;68.90
33863;DHT22;20158;51.436;-2.742;2023-02-14T11:16:37;10.40;68.90
33863;DHT22;20158;51.436;-2.742;2023-02-14T11:21:42;10.50;69.00
33863;DHT22;20158;51.436;-2.742;2023-02-14T11:27:02;10.50;69.00
33863;DHT22;20158;51.436;-2.742;2023-02-14T11:29:42;10.60;69.20
33863;DHT22;20158;51.436;-2.742;2023-02-14T11:32:22;10.60;69.20
33863;DHT22;20158;51.436;-2.742;2023-02-14T11:34:53;10.60;69.20
33863;DHT22;20158;51.436;-2.742;2023-02-14T11:37:36;10.70;69.40
33863;DHT22;20158;51.436;-2.742;2023-02-14T11:40:05;10.70;69.40
33863;DHT22;20158;51.436;-2.742;2023-02-14T11:42:43;10.70;69.40
33863;DHT22;20158;51.436;-2.742;2023-02-14T11:45:26;10.80;69.70
33863;DHT22;20158;51.436;-2.742;2023-02-14T11:48:27;10.90;69.80
33863;DHT22;20158;51.436;-2.742;2023-02-14T11:51:10;10.90;70.20
33863;DHT22;20158;51.436;-2.742;2023-02-14T11:53:47;11.00;69.70
33863;DHT22;20158;51.436;-2.742;2023-02-14T11:56:14;11.00;69.60
33863;DHT22;20158;51.436;-2.742;2023-02-14T11:58:53;11.00;69.60
33863;DHT22;20158;51.436;-2.742;2023-02-14T12:01:39;11.10;69.70
33863;DHT22;20158;51.436;-2.742;2023-02-14T12:04:18;11.10;69.70
33863;DHT22;20158;51.436;-2.742;2023-02-14T12:06:45;11.20;69.90
33863;DHT22;20158;51.436;-2.742;2023-02-14T12:09:24;11.20;69.80
33863;DHT22;20158;51.436;-2.742;2023-02-14T12:12:14;11.30;70.00
33863;DHT22;20158;51.436;-2.742;2023-02-14T12:14:40;11.40;70.10
33863;DHT22;20158;51.436;-2.742;2023-02-14T12:17:17;11.40;70.00
33863;DHT22;20158;51.436;-2.742;2023-02-14T12:19:50;11.50;70.10
33863;DHT22;20158;51.436;-2.742;2023-02-14T12:22:21;11.50;70.10
33863;DHT22;20158;51.436;-2.742;2023-02-14T12:27:59;11.50;70.00
33863;DHT22;20158;51.436;-2.742;2023-02-14T12:30:32;11.60;70.10
33863;DHT22;20158;51.436;-2.742;2023-02-14T12:32:59;11.60;70.00
33863;DHT22;20158;51.436;-2.742;2023-02-14T12:35:35;11.60;69.90
33863;DHT22;20158;51.436;-2.742;2023-02-14T12:51:52;11.80;69.80
33863;DHT22;20158;51.436;-2.742;2023-02-14T12:57:21;12.00;69.80
33863;DHT22;20158;51.436;-2.742;2023-02-14T12:59:54;12.00;69.70
33863;DHT22;20158;51.436;-2.742;2023-02-14T13:08:34;12.10;69.20
33863;DHT22;20158;51.436;-2.742;2023-02-14T13:14:22;12.20;69.10
33863;DHT22;20158;51.436;-2.742;2023-02-14T13:17:06;12.30;69.00
33863;DHT22;20158;51.436;-2.742;2023-02-14T13:22:18;12.40;68.90
33863;DHT22;20158;51.436;-2.742;2023-02-14T13:24:50;12.40;68.70
33863;DHT22;20158;51.436;-2.742;2023-02-14T13:27:21;12.40;68.60
33863;DHT22;20158;51.436;-2.742;2023-02-14T13:29:55;12.50;68.60
33863;DHT22;20158;51.436;-2.742;2023-02-14T13:32:26;12.50;68.40
33863;DHT22;20158;51.436;-2.742;2023-02-14T13:34:53;12.60;68.30
33863;DHT22;20158;51.436;-2.742;2023-02-14T13:37:21;12.70;68.20
33863;DHT22;20158;51.436;-2.742;2023-02-14T13:39:57;12.70;67.90
33863;DHT22;20158;51.436;-2.742;2023-02-14T13:48:26;12.90;67.30
33863;DHT22;20158;51.436;-2.742;2023-02-14T13:55:56;13.00;66.70
33863;DHT22;20158;51.436;-2.742;2023-02-14T13:58:22;13.10;66.80
33863;DHT22;20158;51.436;-2.742;2023-02-14T14:00:51;13.20;66.80
33863;DHT22;20158;51.436;-2.742;2023-02-14T14:06:10;13.20;66.20
33863;DHT22;20158;51.436;-2.742;2023-02-14T14:08:40;13.20;66.00
33863;DHT22;20158;51.436;-2.742;2023-02-14T14:18:54;13.30;65.70
33863;DHT22;20158;51.436;-2.742;2023-02-14T14:21:59;13.30;65.70
33863;DHT22;20158;51.436;-2.742;2023-02-14T14:24:32;13.30;65.30
33863;DHT22;20158;51.436;-2.742;2023-02-14T14:26:59;13.30;65.40
33863;DHT22;20158;51.436;-2.742;2023-02-14T14:29:44;13.30;65.40
33863;DHT22;20158;51.436;-2.742;2023-02-14T14:32:26;13.30;65.50
33863;DHT22;20158;51.436;-2.742;2023-02-14T14:34:59;13.20;65.30
33863;DHT22;20158;51.436;-2.742;2023-02-14T14:37:30;13.20;65.30
33863;DHT22;20158;51.436;-2.742;2023-02-14T14:39:59;13.20;65.30
33863;DHT22;20158;51.436;-2.742;2023-02-14T14:42:29;13.20;65.30
33863;DHT22;20158;51.436;-2.742;2023-02-14T14:45:02;13.20;65.30
33863;DHT22;20158;51.436;-2.742;2023-02-14T14:47:39;13.20;65.20
33863;DHT22;20158;51.436;-2.742;2023-02-14T14:50:13;13.20;65.30
33863;DHT22;20158;51.436;-2.742;2023-02-14T14:52:42;13.30;65.80
33863;DHT22;20158;51.436;-2.742;2023-02-14T14:55:23;13.40;66.20
33863;DHT22;20158;51.436;-2.742;2023-02-14T14:57:55;13.40;66.30
33863;DHT22;20158;51.436;-2.742;2023-02-14T15:05:41;13.50;66.20
33863;DHT22;20158;51.436;-2.742;2023-02-14T15:13:36;13.40;65.80
33863;DHT22;20158;51.436;-2.742;2023-02-14T15:18:56;13.40;65.80
33863;DHT22;20158;51.436;-2.742;2023-02-14T15:21:23;13.40;65.90
33863;DHT22;20158;51.436;-2.742;2023-02-14T15:23:50;13.40;65.90
33863;DHT22;20158;51.436;-2.742;2023-02-14T15:26:37;13.40;65.90
33863;DHT22;20158;51.436;-2.742;2023-02-14T15:29:05;13.30;65.50
33863;DHT22;20158;51.436;-2.742;2023-02-14T15:31:37;13.30;65.60
33863;DHT22;20158;51.436;-2.742;2023-02-14T15:34:04;13.30;65.50
33863;DHT22;20158;51.436;-2.742;2023-02-14T15:36:32;13.30;65.50
33863;DHT22;20158;51.436;-2.742;2023-02-14T15:39:02;13.30;65.40
33863;DHT22;20158;51.436;-2.742;2023-02-14T15:41:29;13.30;65.30
33863;DHT22;20158;51.436;-2.742;2023-02-14T15:43:55;13.20;65.10
33863;DHT22;20158;51.436;-2.742;2023-02-14T15:46:36;13.20;65.10
33863;DHT22;20158;51.436;-2.742;2023-02-14T15:49:13;13.20;64.90
33863;DHT22;20158;51.436;-2.742;2023-02-14T15:51:41;13.20;64.90
33863;DHT22;20158;51.436;-2.742;2023-02-14T15:54:19;13.20;65.00
33863;DHT22;20158;51.436;-2.742;2023-02-14T15:56:50;13.10;64.70
33863;DHT22;20158;51.436;-2.742;2023-02-14T15:59:24;13.10;64.70
33863;DHT22;20158;51.436;-2.742;2023-02-14T16:01:58;13.10;64.70
33863;DHT22;20158;51.436;-2.742;2023-02-14T16:04:27;13.00;64.50
33863;DHT22;20158;51.436;-2.742;2023-02-14T16:07:14;13.00;64.60
33863;DHT22;20158;51.436;-2.742;2023-02-14T16:09:41;12.90;64.30
33863;DHT22;20158;51.436;-2.742;2023-02-14T16:12:33;12.90;64.40
33863;DHT22;20158;51.436;-2.742;2023-02-14T16:15:19;12.80;64.20
33863;DHT22;20158;51.436;-2.742;2023-02-14T16:17:46;12.80;64.20
33863;DHT22;20158;51.436;-2.742;2023-02-14T16:20:38;12.80;64.30
33863;DHT22;20158;51.436;-2.742;2023-02-14T16:23:26;12.80;64.20
33863;DHT22;20158;51.436;-2.742;2023-02-14T16:25:54;12.70;64.10
33863;DHT22;20158;51.436;-2.742;2023-02-14T16:28:22;12.70;64.20
33863;DHT22;20158;51.436;-2.742;2023-02-14T16:30:53;12.70;64.20
33863;DHT22;20158;51.436;-2.742;2023-02-14T16:33:26;12.70;64.20
33863;DHT22;20158;51.436;-2.742;2023-02-14T16:35:53;12.60;64.00
33863;DHT22;20158;51.436;-2.742;2023-02-14T16:38:19;12.50;63.90
33863;DHT22;20158;51.436;-2.742;2023-02-14T16:40:48;12.50;63.90
33863;DHT22;20158;51.436;-2.742;2023-02-14T16:43:17;12.50;64.00
33863;DHT22;20158;51.436;-2.742;2023-02-14T16:45:44;12.40;63.90
33863;DHT22;20158;51.436;-2.742;2023-02-14T16:48:10;12.40;64.00
33863;DHT22;20158;51.436;-2.742;2023-02-14T16:50:38;12.30;63.90
33863;DHT22;20158;51.436;-2.742;2023-02-14T16:53:12;12.30;64.00
33863;DHT22;20158;51.436;-2.742;2023-02-14T16:55:39;12.30;64.10
33863;DHT22;20158;51.436;-2.742;2023-02-14T16:58:05;12.20;64.10
33863;DHT22;20158;51.436;-2.742;2023-02-14T17:00:31;12.10;63.90
33863;DHT22;20158;51.436;-2.742;2023-02-14T17:02:58;12.10;64.60
33863;DHT22;20158;51.436;-2.742;2023-02-14T17:05:34;12.00;64.00
33863;DHT22;20158;51.436;-2.742;2023-02-14T17:08:02;12.00;64.10
33863;DHT22;20158;51.436;-2.742;2023-02-14T17:10:28;11.90;64.00
33863;DHT22;20158;51.436;-2.742;2023-02-14T17:12:57;11.80;64.00
33863;DHT22;20158;51.436;-2.742;2023-02-14T17:15:24;11.80;64.10
33863;DHT22;20158;51.436;-2.742;2023-02-14T17:17:55;11.70;64.20
33863;DHT22;20158;51.436;-2.742;2023-02-14T17:20:22;11.70;64.60
33863;DHT22;20158;51.436;-2.742;2023-02-14T17:22:49;11.70;64.80
33863;DHT22;20158;51.436;-2.742;2023-02-14T17:25:15;11.70;64.90
33863;DHT22;20158;51.436;-2.742;2023-02-14T17:27:41;11.60;64.80
33863;DHT22;20158;51.436;-2.742;2023-02-14T17:30:12;11.60;64.70
33863;DHT22;20158;51.436;-2.742;2023-02-14T17:32:39;11.50;64.80
33863;DHT22;20158;51.436;-2.742;2023-02-14T17:35:06;11.40;64.70
33863;DHT22;20158;51.436;-2.742;2023-02-14T17:37:34;11.30;64.70
33863;DHT22;20158;51.436;-2.742;2023-02-14T17:40:01;11.30;64.80
33863;DHT22;20158;51.436;-2.742;2023-02-14T17:42:27;11.20;64.80
33863;DHT22;20158;51.436;-2.742;2023-02-14T17:44:53;11.10;64.70
33863;DHT22;20158;51.436;-2.742;2023-02-14T17:47:19;11.10;64.90
33863;DHT22;20158;51.436;-2.742;2023-02-14T17:49:45;11.00;64.90
33863;DHT22;20158;51.436;-2.742;2023-02-14T17:52:14;10.90;64.80
33863;DHT22;20158;51.436;-2.742;2023-02-14T17:54:40;10.90;64.90
33863;DHT22;20158;51.436;-2.742;2023-02-14T17:57:10;10.80;64.90
33863;DHT22;20158;51.436;-2.742;2023-02-14T17:59:37;10.70;64.80
33863;DHT22;20158;51.436;-2.742;2023-02-14T18:02:03;10.70;64.90
33863;DHT22;20158;51.436;-2.742;2023-02-14T18:04:29;10.60;64.80